sensor_id;sensor_type;location;lat;lon;timestamp;P1;durP1;ratioP1;P2;durP2;ratioP2
84713;SDS011;74938;42.658;23.248;2024-03-25T00:01:05;0.57;;;0.47;;
84713;SDS011;74938;42.658;23.248;2024-03-25T00:03:30;3.33;;;0.63;;
84713;SDS011;74938;42.658;23.248;2024-03-25T00:05:56;0.60;;;0.57;;
84713;SDS011;74938;42.658;23.248;2024-03-25T00:08:22;1.38;;;0.50;;
84713;SDS011;74938;42.658;23.248;2024-03-25T00:10:47;0.40;;;0.40;;
84713;SDS011;74938;42.658;23.248;2024-03-25T00:13:13;0.40;;;0.40;;
84713;SDS011;74938;42.658;23.248;2024-03-25T00:15:38;0.38;;;0.38;;
84713;SDS011;74938;42.658;23.248;2024-03-25T00:18:04;1.20;;;0.40;;
84713;SDS011;74938;42.658;23.248;2024-03-25T00:20:30;0.40;;;0.40;;
84713;SDS011;74938;42.658;23.248;2024-03-25T00:22:55;0.30;;;0.30;;
84713;SDS011;74938;42.658;23.248;2024-03-25T00:25:20;0.40;;;0.40;;
84713;SDS011;74938;42.658;23.248;2024-03-25T00:27:46;1.10;;;0.50;;
84713;SDS011;74938;42.658;23.248;2024-03-25T00:30:12;0.43;;;0.43;;
84713;SDS011;74938;42.658;23.248;2024-03-25T00:32:38;0.75;;;0.60;;
84713;SDS011;74938;42.658;23.248;2024-03-25T00:35:04;0.80;;;0.50;;
84713;SDS011;74938;42.658;23.248;2024-03-25T00:37:29;2.05;;;0.60;;
84713;SDS011;74938;42.658;23.248;2024-03-25T00:39:55;0.52;;;0.52;;
84713;SDS011;74938;42.658;23.248;2024-03-25T00:42:20;0.47;;;0.47;;
84713;SDS011;74938;42.658;23.248;2024-03-25T00:44:45;0.30;;;0.30;;
84713;SDS011;74938;42.658;23.248;2024-03-25T00:47:11;0.32;;;0.32;;
84713;SDS011;74938;42.658;23.248;2024-03-25T00:49:37;0.30;;;0.30;;
84713;SDS011;74938;42.658;23.248;2024-03-25T00:52:03;0.38;;;0.38;;
84713;SDS011;74938;42.658;23.248;2024-03-25T00:54:29;0.43;;;0.40;;
84713;SDS011;74938;42.658;23.248;2024-03-25T00:56:54;0.30;;;0.30;;
84713;SDS011;74938;42.658;23.248;2024-03-25T00:59:20;0.30;;;0.30;;
84713;SDS011;74938;42.658;23.248;2024-03-25T01:01:45;0.95;;;0.45;;
84713;SDS011;74938;42.658;23.248;2024-03-25T01:04:11;0.50;;;0.50;;
84713;SDS011;74938;42.658;23.248;2024-03-25T01:06:36;0.70;;;0.50;;
84713;SDS011;74938;42.658;23.248;2024-03-25T01:09:02;0.65;;;0.63;;
84713;SDS011;74938;42.658;23.248;2024-03-25T01:11:29;0.38;;;0.38;;
84713;SDS011;74938;42.658;23.248;2024-03-25T01:13:55;0.40;;;0.40;;
84713;SDS011;74938;42.658;23.248;2024-03-25T01:16:21;0.45;;;0.40;;
84713;SDS011;74938;42.658;23.248;2024-03-25T01:18:46;0.63;;;0.40;;
84713;SDS011;74938;42.658;23.248;2024-03-25T01:21:12;0.50;;;0.40;;
84713;SDS011;74938;42.658;23.248;2024-03-25T01:23:37;0.50;;;0.50;;
84713;SDS011;74938;42.658;23.248;2024-03-25T01:26:03;0.55;;;0.40;;
84713;SDS011;74938;42.658;23.248;2024-03-25T01:28:28;0.63;;;0.50;;
84713;SDS011;74938;42.658;23.248;2024-03-25T01:30:54;0.95;;;0.52;;
84713;SDS011;74938;42.658;23.248;2024-03-25T01:33:19;0.40;;;0.40;;
84713;SDS011;74938;42.658;23.248;2024-03-25T01:35:45;0.93;;;0.50;;
84713;SDS011;74938;42.658;23.248;2024-03-25T01:38:10;0.82;;;0.70;;
84713;SDS011;74938;42.658;23.248;2024-03-25T01:40:35;0.52;;;0.52;;
84713;SDS011;74938;42.658;23.248;2024-03-25T01:43:02;0.30;;;0.30;;
84713;SDS011;74938;42.658;23.248;2024-03-25T01:45:29;0.30;;;0.30;;
84713;SDS011;74938;42.658;23.248;2024-03-25T01:47:56;0.30;;;0.30;;
84713;SDS011;74938;42.658;23.248;2024-03-25T01:50:23;0.60;;;0.50;;
84713;SDS011;74938;42.658;23.248;2024-03-25T01:52:49;1.92;;;0.80;;
84713;SDS011;74938;42.658;23.248;2024-03-25T01:55:16;0.57;;;0.55;;
84713;SDS011;74938;42.658;23.248;2024-03-25T01:57:45;2.05;;;0.40;;
84713;SDS011;74938;42.658;23.248;2024-03-25T02:00:12;0.30;;;0.30;;
84713;SDS011;74938;42.658;23.248;2024-03-25T02:02:39;0.70;;;0.40;;
84713;SDS011;74938;42.658;23.248;2024-03-25T02:05:15;0.57;;;0.43;;
84713;SDS011;74938;42.658;23.248;2024-03-25T02:07:41;0.47;;;0.47;;
84713;SDS011;74938;42.658;23.248;2024-03-25T02:10:08;0.40;;;0.40;;
84713;SDS011;74938;42.658;23.248;2024-03-25T02:12:40;0.50;;;0.50;;
84713;SDS011;74938;42.658;23.248;2024-03-25T02:15:09;0.68;;;0.50;;
84713;SDS011;74938;42.658;23.248;2024-03-25T02:17:35;0.43;;;0.43;;
84713;SDS011;74938;42.658;23.248;2024-03-25T02:20:01;1.02;;;0.50;;
84713;SDS011;74938;42.658;23.248;2024-03-25T02:22:28;0.50;;;0.50;;
84713;SDS011;74938;42.658;23.248;2024-03-25T02:24:54;2.20;;;0.55;;
84713;SDS011;74938;42.658;23.248;2024-03-25T02:27:22;0.52;;;0.52;;
84713;SDS011;74938;42.658;23.248;2024-03-25T02:29:48;0.45;;;0.35;;
84713;SDS011;74938;42.658;23.248;2024-03-25T02:32:13;0.65;;;0.52;;
84713;SDS011;74938;42.658;23.248;2024-03-25T02:34:39;1.02;;;0.50;;
84713;SDS011;74938;42.658;23.248;2024-03-25T02:37:12;0.40;;;0.40;;
84713;SDS011;74938;42.658;23.248;2024-03-25T02:39:38;0.40;;;0.40;;
84713;SDS011;74938;42.658;23.248;2024-03-25T02:42:04;0.30;;;0.30;;
84713;SDS011;74938;42.658;23.248;2024-03-25T02:44:30;0.63;;;0.50;;
84713;SDS011;74938;42.658;23.248;2024-03-25T02:46:56;0.50;;;0.50;;
84713;SDS011;74938;42.658;23.248;2024-03-25T02:49:22;0.50;;;0.50;;
84713;SDS011;74938;42.658;23.248;2024-03-25T02:51:48;0.57;;;0.57;;
84713;SDS011;74938;42.658;23.248;2024-03-25T02:54:13;0.80;;;0.60;;
84713;SDS011;74938;42.658;23.248;2024-03-25T02:56:39;0.60;;;0.60;;
84713;SDS011;74938;42.658;23.248;2024-03-25T02:59:05;0.60;;;0.60;;
84713;SDS011;74938;42.658;23.248;2024-03-25T03:01:31;0.95;;;0.60;;
84713;SDS011;74938;42.658;23.248;2024-03-25T03:03:56;0.98;;;0.60;;
84713;SDS011;74938;42.658;23.248;2024-03-25T03:06:21;1.55;;;1.00;;
84713;SDS011;74938;42.658;23.248;2024-03-25T03:08:47;0.80;;;0.60;;
84713;SDS011;74938;42.658;23.248;2024-03-25T03:11:13;0.88;;;0.63;;
84713;SDS011;74938;42.658;23.248;2024-03-25T03:13:38;1.50;;;0.70;;
84713;SDS011;74938;42.658;23.248;2024-03-25T03:16:04;2.50;;;0.57;;
84713;SDS011;74938;42.658;23.248;2024-03-25T03:18:30;1.83;;;1.10;;
84713;SDS011;74938;42.658;23.248;2024-03-25T03:20:55;0.80;;;0.70;;
84713;SDS011;74938;42.658;23.248;2024-03-25T03:23:21;1.92;;;0.80;;
84713;SDS011;74938;42.658;23.248;2024-03-25T03:25:49;1.35;;;0.70;;
84713;SDS011;74938;42.658;23.248;2024-03-25T03:28:15;1.92;;;0.80;;
84713;SDS011;74938;42.658;23.248;2024-03-25T03:30:41;2.00;;;1.02;;
84713;SDS011;74938;42.658;23.248;2024-03-25T03:33:07;2.85;;;1.40;;
84713;SDS011;74938;42.658;23.248;2024-03-25T03:35:33;1.70;;;1.00;;
84713;SDS011;74938;42.658;23.248;2024-03-25T03:37:59;1.38;;;0.90;;
84713;SDS011;74938;42.658;23.248;2024-03-25T03:40:24;1.80;;;1.00;;
84713;SDS011;74938;42.658;23.248;2024-03-25T03:42:49;0.88;;;0.88;;
84713;SDS011;74938;42.658;23.248;2024-03-25T03:45:15;1.13;;;0.57;;
84713;SDS011;74938;42.658;23.248;2024-03-25T03:47:40;1.05;;;0.93;;
84713;SDS011;74938;42.658;23.248;2024-03-25T03:50:06;1.52;;;0.98;;
84713;SDS011;74938;42.658;23.248;2024-03-25T03:52:32;1.92;;;1.05;;
84713;SDS011;74938;42.658;23.248;2024-03-25T03:54:58;1.52;;;1.00;;
84713;SDS011;74938;42.658;23.248;2024-03-25T03:57:23;1.48;;;1.02;;
84713;SDS011;74938;42.658;23.248;2024-03-25T03:59:50;2.22;;;1.02;;
84713;SDS011;74938;42.658;23.248;2024-03-25T04:02:16;1.73;;;1.23;;
84713;SDS011;74938;42.658;23.248;2024-03-25T04:04:41;2.67;;;1.42;;
84713;SDS011;74938;42.658;23.248;2024-03-25T04:07:06;1.55;;;1.00;;
84713;SDS011;74938;42.658;23.248;2024-03-25T04:09:32;4.50;;;1.98;;
84713;SDS011;74938;42.658;23.248;2024-03-25T04:11:57;2.15;;;1.45;;
84713;SDS011;74938;42.658;23.248;2024-03-25T04:14:23;4.88;;;2.63;;
84713;SDS011;74938;42.658;23.248;2024-03-25T04:16:48;3.22;;;2.17;;
84713;SDS011;74938;42.658;23.248;2024-03-25T04:19:14;4.82;;;2.72;;
84713;SDS011;74938;42.658;23.248;2024-03-25T04:21:39;5.25;;;2.40;;
84713;SDS011;74938;42.658;23.248;2024-03-25T04:24:04;5.57;;;2.47;;
84713;SDS011;74938;42.658;23.248;2024-03-25T04:26:31;5.40;;;2.33;;
84713;SDS011;74938;42.658;23.248;2024-03-25T04:28:56;4.10;;;2.30;;
84713;SDS011;74938;42.658;23.248;2024-03-25T04:31:22;6.97;;;3.13;;
84713;SDS011;74938;42.658;23.248;2024-03-25T04:33:47;4.05;;;2.00;;
84713;SDS011;74938;42.658;23.248;2024-03-25T04:36:13;5.88;;;3.17;;
84713;SDS011;74938;42.658;23.248;2024-03-25T04:38:38;2.85;;;1.90;;
84713;SDS011;74938;42.658;23.248;2024-03-25T04:41:04;5.90;;;3.05;;
84713;SDS011;74938;42.658;23.248;2024-03-25T04:43:29;3.78;;;1.98;;
84713;SDS011;74938;42.658;23.248;2024-03-25T04:45:55;6.00;;;2.45;;
84713;SDS011;74938;42.658;23.248;2024-03-25T04:48:20;10.68;;;4.68;;
84713;SDS011;74938;42.658;23.248;2024-03-25T04:50:46;5.28;;;2.83;;
84713;SDS011;74938;42.658;23.248;2024-03-25T04:53:11;6.07;;;3.33;;
84713;SDS011;74938;42.658;23.248;2024-03-25T04:55:37;3.80;;;2.25;;
84713;SDS011;74938;42.658;23.248;2024-03-25T04:58:02;5.38;;;2.25;;
84713;SDS011;74938;42.658;23.248;2024-03-25T05:00:28;6.10;;;3.33;;
84713;SDS011;74938;42.658;23.248;2024-03-25T05:02:53;7.25;;;4.05;;
84713;SDS011;74938;42.658;23.248;2024-03-25T05:05:18;8.23;;;4.10;;
84713;SDS011;74938;42.658;23.248;2024-03-25T05:07:44;8.70;;;3.80;;
84713;SDS011;74938;42.658;23.248;2024-03-25T05:10:09;9.45;;;3.65;;
84713;SDS011;74938;42.658;23.248;2024-03-25T05:12:35;6.38;;;3.38;;
84713;SDS011;74938;42.658;23.248;2024-03-25T05:15:01;9.23;;;4.05;;
84713;SDS011;74938;42.658;23.248;2024-03-25T05:17:26;6.88;;;3.28;;
84713;SDS011;74938;42.658;23.248;2024-03-25T05:19:51;8.38;;;3.42;;
84713;SDS011;74938;42.658;23.248;2024-03-25T05:22:17;4.53;;;2.60;;
84713;SDS011;74938;42.658;23.248;2024-03-25T05:24:42;9.23;;;3.63;;
84713;SDS011;74938;42.658;23.248;2024-03-25T05:27:08;6.75;;;3.53;;
84713;SDS011;74938;42.658;23.248;2024-03-25T05:29:33;4.38;;;2.22;;
84713;SDS011;74938;42.658;23.248;2024-03-25T05:32:00;4.80;;;2.58;;
84713;SDS011;74938;42.658;23.248;2024-03-25T05:34:26;5.38;;;3.13;;
84713;SDS011;74938;42.658;23.248;2024-03-25T05:36:53;7.00;;;3.22;;
84713;SDS011;74938;42.658;23.248;2024-03-25T05:39:19;7.47;;;3.83;;
84713;SDS011;74938;42.658;23.248;2024-03-25T05:41:45;6.50;;;3.78;;
84713;SDS011;74938;42.658;23.248;2024-03-25T05:44:11;8.95;;;4.00;;
84713;SDS011;74938;42.658;23.248;2024-03-25T05:46:36;10.93;;;4.25;;
84713;SDS011;74938;42.658;23.248;2024-03-25T05:49:03;7.65;;;3.55;;
84713;SDS011;74938;42.658;23.248;2024-03-25T05:51:29;9.55;;;3.92;;
84713;SDS011;74938;42.658;23.248;2024-03-25T05:53:55;8.18;;;3.50;;
84713;SDS011;74938;42.658;23.248;2024-03-25T05:56:20;9.27;;;4.53;;
84713;SDS011;74938;42.658;23.248;2024-03-25T05:58:46;7.85;;;3.45;;
84713;SDS011;74938;42.658;23.248;2024-03-25T06:01:11;10.95;;;5.47;;
84713;SDS011;74938;42.658;23.248;2024-03-25T06:03:37;7.68;;;3.88;;
84713;SDS011;74938;42.658;23.248;2024-03-25T06:06:02;9.35;;;5.88;;
84713;SDS011;74938;42.658;23.248;2024-03-25T06:08:28;6.75;;;3.95;;
84713;SDS011;74938;42.658;23.248;2024-03-25T06:10:54;8.05;;;4.28;;
84713;SDS011;74938;42.658;23.248;2024-03-25T06:13:20;7.22;;;3.97;;
84713;SDS011;74938;42.658;23.248;2024-03-25T06:15:45;10.60;;;4.18;;
84713;SDS011;74938;42.658;23.248;2024-03-25T06:18:11;8.88;;;4.18;;
84713;SDS011;74938;42.658;23.248;2024-03-25T06:20:37;9.38;;;4.25;;
84713;SDS011;74938;42.658;23.248;2024-03-25T06:23:03;7.50;;;3.75;;
84713;SDS011;74938;42.658;23.248;2024-03-25T06:25:29;7.40;;;3.30;;
84713;SDS011;74938;42.658;23.248;2024-03-25T06:27:55;8.02;;;4.13;;
84713;SDS011;74938;42.658;23.248;2024-03-25T06:30:20;6.70;;;3.40;;
84713;SDS011;74938;42.658;23.248;2024-03-25T06:33:04;6.28;;;2.88;;
84713;SDS011;74938;42.658;23.248;2024-03-25T06:35:48;8.00;;;3.58;;
84713;SDS011;74938;42.658;23.248;2024-03-25T06:38:13;7.20;;;3.80;;
84713;SDS011;74938;42.658;23.248;2024-03-25T06:40:38;7.78;;;4.55;;
84713;SDS011;74938;42.658;23.248;2024-03-25T06:43:04;6.00;;;3.25;;
84713;SDS011;74938;42.658;23.248;2024-03-25T06:45:30;6.55;;;4.05;;
84713;SDS011;74938;42.658;23.248;2024-03-25T06:47:56;7.88;;;3.97;;
84713;SDS011;74938;42.658;23.248;2024-03-25T06:50:22;3.78;;;2.40;;
84713;SDS011;74938;42.658;23.248;2024-03-25T06:52:48;6.05;;;3.38;;
84713;SDS011;74938;42.658;23.248;2024-03-25T06:55:14;6.90;;;3.35;;
84713;SDS011;74938;42.658;23.248;2024-03-25T06:57:39;7.10;;;4.13;;
84713;SDS011;74938;42.658;23.248;2024-03-25T07:00:05;6.30;;;4.07;;
84713;SDS011;74938;42.658;23.248;2024-03-25T07:02:35;6.97;;;4.47;;
84713;SDS011;74938;42.658;23.248;2024-03-25T07:05:00;8.20;;;4.22;;
84713;SDS011;74938;42.658;23.248;2024-03-25T07:07:26;8.52;;;4.07;;
84713;SDS011;74938;42.658;23.248;2024-03-25T07:09:51;7.53;;;4.28;;
84713;SDS011;74938;42.658;23.248;2024-03-25T07:12:16;6.72;;;3.40;;
84713;SDS011;74938;42.658;23.248;2024-03-25T07:14:42;7.72;;;3.60;;
84713;SDS011;74938;42.658;23.248;2024-03-25T07:17:07;8.57;;;4.35;;
84713;SDS011;74938;42.658;23.248;2024-03-25T07:19:32;7.35;;;3.65;;
84713;SDS011;74938;42.658;23.248;2024-03-25T07:21:58;5.93;;;3.58;;
84713;SDS011;74938;42.658;23.248;2024-03-25T07:24:23;9.52;;;4.20;;
84713;SDS011;74938;42.658;23.248;2024-03-25T07:26:48;6.68;;;3.60;;
84713;SDS011;74938;42.658;23.248;2024-03-25T07:29:15;8.23;;;3.90;;
84713;SDS011;74938;42.658;23.248;2024-03-25T07:31:40;6.55;;;3.60;;
84713;SDS011;74938;42.658;23.248;2024-03-25T07:34:06;5.80;;;3.55;;
84713;SDS011;74938;42.658;23.248;2024-03-25T07:36:31;6.40;;;3.78;;
84713;SDS011;74938;42.658;23.248;2024-03-25T07:39:00;6.28;;;3.63;;
84713;SDS011;74938;42.658;23.248;2024-03-25T07:41:25;6.45;;;3.55;;
84713;SDS011;74938;42.658;23.248;2024-03-25T07:43:50;6.55;;;3.70;;
84713;SDS011;74938;42.658;23.248;2024-03-25T07:46:16;5.45;;;3.58;;
84713;SDS011;74938;42.658;23.248;2024-03-25T07:48:41;7.00;;;3.67;;
84713;SDS011;74938;42.658;23.248;2024-03-25T07:51:07;5.95;;;3.65;;
84713;SDS011;74938;42.658;23.248;2024-03-25T07:53:32;6.63;;;4.20;;
84713;SDS011;74938;42.658;23.248;2024-03-25T07:55:58;6.80;;;3.95;;
84713;SDS011;74938;42.658;23.248;2024-03-25T07:58:23;6.60;;;4.07;;
84713;SDS011;74938;42.658;23.248;2024-03-25T08:00:49;6.60;;;3.90;;
84713;SDS011;74938;42.658;23.248;2024-03-25T08:03:14;8.13;;;4.82;;
84713;SDS011;74938;42.658;23.248;2024-03-25T08:05:40;6.75;;;3.70;;
84713;SDS011;74938;42.658;23.248;2024-03-25T08:08:05;6.25;;;3.72;;
84713;SDS011;74938;42.658;23.248;2024-03-25T08:10:31;6.40;;;3.50;;
84713;SDS011;74938;42.658;23.248;2024-03-25T08:12:56;7.00;;;4.43;;
84713;SDS011;74938;42.658;23.248;2024-03-25T08:15:22;7.25;;;4.40;;
84713;SDS011;74938;42.658;23.248;2024-03-25T08:17:47;8.43;;;4.25;;
84713;SDS011;74938;42.658;23.248;2024-03-25T08:20:12;6.50;;;3.72;;
84713;SDS011;74938;42.658;23.248;2024-03-25T08:22:38;6.72;;;4.05;;
84713;SDS011;74938;42.658;23.248;2024-03-25T08:25:04;6.65;;;3.83;;
84713;SDS011;74938;42.658;23.248;2024-03-25T08:27:30;6.65;;;3.53;;
84713;SDS011;74938;42.658;23.248;2024-03-25T08:29:55;7.80;;;3.63;;
84713;SDS011;74938;42.658;23.248;2024-03-25T08:32:21;9.02;;;3.47;;
84713;SDS011;74938;42.658;23.248;2024-03-25T08:34:46;7.18;;;4.20;;
84713;SDS011;74938;42.658;23.248;2024-03-25T08:37:12;8.85;;;4.38;;
84713;SDS011;74938;42.658;23.248;2024-03-25T08:39:37;8.38;;;3.97;;
84713;SDS011;74938;42.658;23.248;2024-03-25T08:42:02;6.07;;;4.10;;
84713;SDS011;74938;42.658;23.248;2024-03-25T08:44:28;7.68;;;4.57;;
84713;SDS011;74938;42.658;23.248;2024-03-25T08:46:53;8.20;;;4.65;;
84713;SDS011;74938;42.658;23.248;2024-03-25T08:49:19;7.93;;;4.60;;
84713;SDS011;74938;42.658;23.248;2024-03-25T08:51:44;7.68;;;4.32;;
84713;SDS011;74938;42.658;23.248;2024-03-25T08:54:09;6.40;;;3.47;;
84713;SDS011;74938;42.658;23.248;2024-03-25T08:56:35;5.55;;;3.22;;
84713;SDS011;74938;42.658;23.248;2024-03-25T08:59:00;7.85;;;4.15;;
84713;SDS011;74938;42.658;23.248;2024-03-25T09:01:26;9.43;;;4.30;;
84713;SDS011;74938;42.658;23.248;2024-03-25T09:03:51;7.43;;;4.07;;
84713;SDS011;74938;42.658;23.248;2024-03-25T09:06:17;8.38;;;4.15;;
84713;SDS011;74938;42.658;23.248;2024-03-25T09:08:42;7.47;;;4.03;;
84713;SDS011;74938;42.658;23.248;2024-03-25T09:11:26;7.63;;;3.03;;
84713;SDS011;74938;42.658;23.248;2024-03-25T09:13:52;6.82;;;3.65;;
84713;SDS011;74938;42.658;23.248;2024-03-25T09:16:18;6.82;;;3.97;;
84713;SDS011;74938;42.658;23.248;2024-03-25T09:18:43;7.53;;;3.70;;
84713;SDS011;74938;42.658;23.248;2024-03-25T09:21:09;6.97;;;3.55;;
84713;SDS011;74938;42.658;23.248;2024-03-25T09:23:34;5.32;;;3.17;;
84713;SDS011;74938;42.658;23.248;2024-03-25T09:25:59;7.63;;;4.25;;
84713;SDS011;74938;42.658;23.248;2024-03-25T09:28:25;7.30;;;4.20;;
84713;SDS011;74938;42.658;23.248;2024-03-25T09:30:50;9.18;;;4.30;;
84713;SDS011;74938;42.658;23.248;2024-03-25T09:33:15;7.28;;;4.53;;
84713;SDS011;74938;42.658;23.248;2024-03-25T09:35:41;6.40;;;3.47;;
84713;SDS011;74938;42.658;23.248;2024-03-25T09:38:06;8.40;;;4.30;;
84713;SDS011;74938;42.658;23.248;2024-03-25T09:40:33;8.55;;;4.43;;
84713;SDS011;74938;42.658;23.248;2024-03-25T09:43:01;6.85;;;3.90;;
84713;SDS011;74938;42.658;23.248;2024-03-25T09:45:28;9.27;;;4.47;;
84713;SDS011;74938;42.658;23.248;2024-03-25T09:47:55;7.32;;;3.50;;
84713;SDS011;74938;42.658;23.248;2024-03-25T09:50:21;7.05;;;3.78;;
84713;SDS011;74938;42.658;23.248;2024-03-25T09:52:50;7.47;;;4.30;;
84713;SDS011;74938;42.658;23.248;2024-03-25T09:55:16;8.85;;;4.40;;
84713;SDS011;74938;42.658;23.248;2024-03-25T09:57:42;9.90;;;4.72;;
84713;SDS011;74938;42.658;23.248;2024-03-25T10:00:08;7.38;;;3.88;;
84713;SDS011;74938;42.658;23.248;2024-03-25T10:02:36;9.70;;;4.68;;
84713;SDS011;74938;42.658;23.248;2024-03-25T10:05:05;6.65;;;3.25;;
84713;SDS011;74938;42.658;23.248;2024-03-25T10:07:31;6.50;;;3.78;;
84713;SDS011;74938;42.658;23.248;2024-03-25T10:09:57;5.95;;;3.70;;
84713;SDS011;74938;42.658;23.248;2024-03-25T10:12:23;8.63;;;3.15;;
84713;SDS011;74938;42.658;23.248;2024-03-25T10:14:49;7.05;;;3.67;;
84713;SDS011;74938;42.658;23.248;2024-03-25T10:17:15;5.57;;;3.60;;
84713;SDS011;74938;42.658;23.248;2024-03-25T10:19:40;7.57;;;3.50;;
84713;SDS011;74938;42.658;23.248;2024-03-25T10:22:06;5.97;;;3.03;;
84713;SDS011;74938;42.658;23.248;2024-03-25T10:27:05;5.22;;;2.97;;
84713;SDS011;74938;42.658;23.248;2024-03-25T10:29:30;7.13;;;3.53;;
84713;SDS011;74938;42.658;23.248;2024-03-25T10:31:59;6.13;;;3.60;;
84713;SDS011;74938;42.658;23.248;2024-03-25T10:34:25;5.05;;;2.83;;
84713;SDS011;74938;42.658;23.248;2024-03-25T10:36:51;4.47;;;2.90;;
84713;SDS011;74938;42.658;23.248;2024-03-25T10:39:22;4.88;;;2.90;;
84713;SDS011;74938;42.658;23.248;2024-03-25T10:41:51;4.90;;;2.67;;
84713;SDS011;74938;42.658;23.248;2024-03-25T10:44:21;6.25;;;3.20;;
84713;SDS011;74938;42.658;23.248;2024-03-25T10:46:47;5.47;;;3.25;;
84713;SDS011;74938;42.658;23.248;2024-03-25T10:49:21;5.18;;;2.90;;
84713;SDS011;74938;42.658;23.248;2024-03-25T10:51:52;5.22;;;2.97;;
84713;SDS011;74938;42.658;23.248;2024-03-25T10:54:19;5.38;;;3.22;;
84713;SDS011;74938;42.658;23.248;2024-03-25T10:56:46;6.20;;;3.40;;
84713;SDS011;74938;42.658;23.248;2024-03-25T10:59:16;5.00;;;2.47;;
84713;SDS011;74938;42.658;23.248;2024-03-25T11:01:43;5.40;;;3.47;;
84713;SDS011;74938;42.658;23.248;2024-03-25T11:04:09;5.45;;;2.97;;
84713;SDS011;74938;42.658;23.248;2024-03-25T11:06:35;4.32;;;2.60;;
84713;SDS011;74938;42.658;23.248;2024-03-25T11:09:00;4.60;;;2.60;;
84713;SDS011;74938;42.658;23.248;2024-03-25T11:11:32;5.15;;;2.38;;
84713;SDS011;74938;42.658;23.248;2024-03-25T11:13:58;5.15;;;2.85;;
84713;SDS011;74938;42.658;23.248;2024-03-25T11:16:30;4.10;;;2.42;;
84713;SDS011;74938;42.658;23.248;2024-03-25T11:19:05;4.82;;;2.65;;
84713;SDS011;74938;42.658;23.248;2024-03-25T11:21:32;5.22;;;2.90;;
84713;SDS011;74938;42.658;23.248;2024-03-25T11:24:05;5.82;;;2.65;;
84713;SDS011;74938;42.658;23.248;2024-03-25T11:26:31;5.13;;;2.83;;
84713;SDS011;74938;42.658;23.248;2024-03-25T11:29:00;6.53;;;3.03;;
84713;SDS011;74938;42.658;23.248;2024-03-25T11:31:25;6.40;;;3.30;;
84713;SDS011;74938;42.658;23.248;2024-03-25T11:33:52;4.07;;;2.22;;
84713;SDS011;74938;42.658;23.248;2024-03-25T11:36:18;4.63;;;2.67;;
84713;SDS011;74938;42.658;23.248;2024-03-25T11:38:45;4.65;;;2.53;;
84713;SDS011;74938;42.658;23.248;2024-03-25T11:41:11;3.58;;;2.03;;
84713;SDS011;74938;42.658;23.248;2024-03-25T11:43:37;4.35;;;2.38;;
84713;SDS011;74938;42.658;23.248;2024-03-25T11:46:02;4.70;;;2.20;;
84713;SDS011;74938;42.658;23.248;2024-03-25T11:48:31;3.47;;;1.80;;
84713;SDS011;74938;42.658;23.248;2024-03-25T11:50:57;4.53;;;2.30;;
84713;SDS011;74938;42.658;23.248;2024-03-25T11:53:23;4.05;;;2.58;;
84713;SDS011;74938;42.658;23.248;2024-03-25T11:55:48;4.15;;;2.10;;
84713;SDS011;74938;42.658;23.248;2024-03-25T11:58:14;6.30;;;2.78;;
84713;SDS011;74938;42.658;23.248;2024-03-25T12:00:43;6.53;;;2.72;;
84713;SDS011;74938;42.658;23.248;2024-03-25T12:03:14;3.00;;;2.08;;
84713;SDS011;74938;42.658;23.248;2024-03-25T12:05:43;4.28;;;2.10;;
84713;SDS011;74938;42.658;23.248;2024-03-25T12:08:09;4.93;;;2.97;;
84713;SDS011;74938;42.658;23.248;2024-03-25T12:10:36;4.88;;;2.55;;
84713;SDS011;74938;42.658;23.248;2024-03-25T12:13:21;3.33;;;2.03;;
84713;SDS011;74938;42.658;23.248;2024-03-25T12:15:47;4.15;;;2.22;;
84713;SDS011;74938;42.658;23.248;2024-03-25T12:18:13;4.70;;;2.38;;
84713;SDS011;74938;42.658;23.248;2024-03-25T12:20:39;4.05;;;2.33;;
84713;SDS011;74938;42.658;23.248;2024-03-25T12:23:05;3.95;;;2.50;;
84713;SDS011;74938;42.658;23.248;2024-03-25T12:25:30;3.50;;;1.83;;
84713;SDS011;74938;42.658;23.248;2024-03-25T12:27:56;4.47;;;2.70;;
84713;SDS011;74938;42.658;23.248;2024-03-25T12:30:22;3.88;;;2.08;;
84713;SDS011;74938;42.658;23.248;2024-03-25T12:32:48;3.03;;;2.20;;
84713;SDS011;74938;42.658;23.248;2024-03-25T12:35:14;3.97;;;1.90;;
84713;SDS011;74938;42.658;23.248;2024-03-25T12:37:46;6.25;;;2.70;;
84713;SDS011;74938;42.658;23.248;2024-03-25T12:40:13;3.45;;;2.05;;
84713;SDS011;74938;42.658;23.248;2024-03-25T12:42:54;4.50;;;2.78;;
84713;SDS011;74938;42.658;23.248;2024-03-25T12:45:20;3.92;;;2.25;;
84713;SDS011;74938;42.658;23.248;2024-03-25T12:47:46;3.72;;;2.33;;
84713;SDS011;74938;42.658;23.248;2024-03-25T12:50:12;3.67;;;2.03;;
84713;SDS011;74938;42.658;23.248;2024-03-25T12:52:37;3.50;;;2.03;;
84713;SDS011;74938;42.658;23.248;2024-03-25T12:55:03;4.78;;;2.50;;
84713;SDS011;74938;42.658;23.248;2024-03-25T12:57:28;4.05;;;2.53;;
84713;SDS011;74938;42.658;23.248;2024-03-25T12:59:56;4.75;;;2.90;;
84713;SDS011;74938;42.658;23.248;2024-03-25T13:02:22;4.05;;;2.50;;
84713;SDS011;74938;42.658;23.248;2024-03-25T13:04:47;4.80;;;2.45;;
84713;SDS011;74938;42.658;23.248;2024-03-25T13:07:13;4.47;;;2.50;;
84713;SDS011;74938;42.658;23.248;2024-03-25T13:09:38;6.15;;;2.90;;
84713;SDS011;74938;42.658;23.248;2024-03-25T13:12:04;3.25;;;2.00;;
84713;SDS011;74938;42.658;23.248;2024-03-25T13:14:29;5.57;;;2.90;;
84713;SDS011;74938;42.658;23.248;2024-03-25T13:16:55;4.97;;;2.70;;
84713;SDS011;74938;42.658;23.248;2024-03-25T13:19:20;4.97;;;2.47;;
84713;SDS011;74938;42.658;23.248;2024-03-25T13:21:46;5.85;;;2.50;;
84713;SDS011;74938;42.658;23.248;2024-03-25T13:24:12;5.45;;;2.80;;
84713;SDS011;74938;42.658;23.248;2024-03-25T13:26:38;4.72;;;2.65;;
84713;SDS011;74938;42.658;23.248;2024-03-25T13:29:04;3.97;;;2.08;;
84713;SDS011;74938;42.658;23.248;2024-03-25T13:31:30;3.65;;;2.13;;
84713;SDS011;74938;42.658;23.248;2024-03-25T13:33:55;3.72;;;2.45;;
84713;SDS011;74938;42.658;23.248;2024-03-25T13:36:20;3.60;;;2.25;;
84713;SDS011;74938;42.658;23.248;2024-03-25T13:38:46;4.03;;;2.10;;
84713;SDS011;74938;42.658;23.248;2024-03-25T13:41:11;3.90;;;2.00;;
84713;SDS011;74938;42.658;23.248;2024-03-25T13:43:42;4.40;;;2.45;;
84713;SDS011;74938;42.658;23.248;2024-03-25T13:46:08;3.95;;;2.20;;
84713;SDS011;74938;42.658;23.248;2024-03-25T13:48:33;2.97;;;1.70;;
84713;SDS011;74938;42.658;23.248;2024-03-25T13:50:58;3.15;;;1.92;;
84713;SDS011;74938;42.658;23.248;2024-03-25T13:53:24;3.63;;;2.08;;
84713;SDS011;74938;42.658;23.248;2024-03-25T13:55:50;4.30;;;1.80;;
84713;SDS011;74938;42.658;23.248;2024-03-25T13:58:16;3.75;;;2.08;;
84713;SDS011;74938;42.658;23.248;2024-03-25T14:00:41;3.20;;;2.10;;
84713;SDS011;74938;42.658;23.248;2024-03-25T14:03:06;2.42;;;1.45;;
84713;SDS011;74938;42.658;23.248;2024-03-25T14:05:32;3.03;;;1.38;;
84713;SDS011;74938;42.658;23.248;2024-03-25T14:07:58;2.70;;;1.48;;
84713;SDS011;74938;42.658;23.248;2024-03-25T14:10:23;2.35;;;1.20;;
84713;SDS011;74938;42.658;23.248;2024-03-25T14:12:49;3.90;;;1.70;;
84713;SDS011;74938;42.658;23.248;2024-03-25T14:15:14;3.80;;;1.52;;
84713;SDS011;74938;42.658;23.248;2024-03-25T14:17:40;3.13;;;1.50;;
84713;SDS011;74938;42.658;23.248;2024-03-25T14:20:06;2.75;;;1.70;;
84713;SDS011;74938;42.658;23.248;2024-03-25T14:22:33;3.00;;;1.50;;
84713;SDS011;74938;42.658;23.248;2024-03-25T14:24:59;2.25;;;1.20;;
84713;SDS011;74938;42.658;23.248;2024-03-25T14:27:24;2.08;;;1.30;;
84713;SDS011;74938;42.658;23.248;2024-03-25T14:29:50;4.07;;;1.70;;